Vanderwagen, New Mexico
Current Conditions -  °F | °C
As of 1:53 PM on Tuesday 21 Oct 2014 (Local Time) from KGUP Reporting Station
Scattered Clouds Scattered Clouds  
Wind Chill: 65°   Ceiling: Unl
Heat Index: 65°   Visibility: 10mi
Dew Point: 44°   Wind: 7mph
Humidity: 47%   Direction: 220°SW
Pressure: 30.12"   Gusts: NA
Location:  35.27°N, 108.75°W
Report Text: KGUP 211953Z AUTO 22006KT 10SM SCT110 18/07 A3012 RMK AO2 SLP107 T01830067
Loading
Personal Weather Stations






























Interactive Weather Map
Tropical Storm Tracking
New forecast layout! Learn more

10-Day Weather Forecast

Advertisements
Track Severe Weather on mobile